Latest Weather Observations for Wilsons Promontory

IDV60801

Issued at 11:02 am EST Tuesday 26 May 2020 (issued every 10 minutes, with the page automatically refreshed every 10 minutes)

About weather observations | Map of weather stations | Latest weather observations for VIC | Other Formats
Station Details ID: 085096 Name: WILSONS PROMONTORY LIGHTHOUSE Lat: -39.13 Lon: 146.42 Height: 95.0 m
Data from the previous 72 hours. | See also: Recent months at Wilsons Promontory
Date/Time
EST
Temp
°C
App
Temp
°C
Dew
Point
°C
Rel
Hum
%
Delta-T
°C
Wind Press
QNH
hPa
Press
MSL
hPa
Rain since
9am
mm
Dir  Spd
km/h
Gust
km/h
Spd
kts
Gust
kts
26/11:00am 13.0 5.0 10.5 85 1.3 NNE 43 57 23 31 1025.1 - 0.0
26/10:30am 13.4 7.3 11.6 89 1.0 NNE 35 46 19 25 1025.8 - 0.0
26/10:00am 12.2 5.9 10.9 92 0.7 NE 35 50 19 27 1025.9 - 0.0
26/09:30am 12.0 6.5 10.6 91 0.7 NNE 30 46 16 25 1026.2 - 0.0
26/09:00am 11.7 6.5 10.3 91 0.7 NNE 28 43 15 23 1026.5 1026.6 0.4
26/08:46am 12.0 5.9 10.6 91 0.7 NNE 33 43 18 23 1026.1 - 0.4
26/08:30am 12.1 4.9 10.5 90 0.8 ENE 39 46 21 25 1026.0 - 0.4
26/08:00am 12.0 6.3 9.9 87 1.1 NNE 30 39 16 21 1026.1 - 0.4
26/07:56am 12.1 6.5 10.0 87 1.1 NNE 30 37 16 20 1026.0 - 0.4
26/07:30am 12.4 5.0 10.0 85 1.2 ENE 39 50 21 27 1025.8 - 0.4
26/07:00am 12.4 4.3 10.0 85 1.2 ENE 43 46 23 25 1025.9 - 0.4
26/06:30am 12.2 4.4 9.9 86 1.2 ENE 41 48 22 26 1025.7 - 0.4
26/06:00am 12.3 6.0 9.7 84 1.3 ENE 33 43 18 23 1025.6 1025.7 0.4
26/05:30am 12.1 4.7 9.8 86 1.2 ENE 39 46 21 25 1025.3 - 0.4
26/05:00am 12.0 4.6 9.9 87 1.1 ENE 39 46 21 25 1025.3 - 0.4
26/04:30am 11.7 5.0 9.6 87 1.1 ENE 35 43 19 23 1025.5 - 0.4
26/04:00am 11.5 5.1 9.2 86 1.2 ENE 33 41 18 22 1025.5 - 0.4
26/03:30am 11.8 3.5 9.5 86 1.2 ENE 43 54 23 29 1025.4 - 0.4
26/03:00am 11.7 4.0 10.1 90 0.8 ENE 41 46 22 25 1025.6 1025.7 0.4
26/02:30am 11.3 4.2 9.4 88 1.0 E 37 43 20 23 1025.8 - 0.4
26/02:00am 12.0 4.4 9.2 83 1.4 ENE 39 48 21 26 1026.2 - 0.4
26/01:30am 12.3 5.6 9.7 84 1.3 ENE 35 44 19 24 1026.3 - 0.4
26/01:00am 12.2 4.1 10.1 87 1.1 ENE 43 48 23 26 1026.3 - 0.4
26/12:30am 11.8 3.7 10.2 90 0.8 ENE 43 48 23 26 1026.4 - 0.4
26/12:00am 11.9 3.8 10.1 89 0.9 ENE 43 50 23 27 1026.2 1026.3 0.2
 
Date/Time
EST
Temp
°C
App
Temp
°C
Dew
Point
°C
Rel
Hum
%
Delta-T
°C
Wind Press
QNH
hPa
Press
MSL
hPa
Rain since
9am
mm
Dir  Spd
km/h
Gust
km/h
Spd
kts
Gust
kts
25/11:30pm 11.2 2.5 9.8 91 0.7 ENE 46 54 25 29 1026.2 - 0.2
25/11:00pm 11.6 5.4 10.0 90 0.8 ENE 33 37 18 20 1026.6 - 0.0
25/10:30pm 11.4 4.3 9.7 89 0.9 ENE 37 46 20 25 1026.8 - 0.0
25/10:00pm 11.8 4.4 9.9 88 1.0 ENE 39 46 21 25 1026.8 - 0.0
25/09:30pm 11.8 4.7 9.7 87 1.1 E 37 43 20 23 1026.9 - 0.0
25/09:00pm 12.2 5.5 9.8 85 1.2 E 35 41 19 22 1027.2 1027.2 0.0
25/08:30pm 11.9 5.8 9.6 86 1.2 E 32 35 17 19 1027.2 - 0.0
25/08:00pm 11.9 5.1 9.3 84 1.3 E 35 41 19 22 1026.8 - 0.0
25/07:30pm 11.9 5.7 9.3 84 1.3 E 32 37 17 20 1026.4 - 0.0
25/07:00pm 11.9 5.4 8.9 82 1.5 E 33 37 18 20 1026.4 - 0.0
25/06:30pm 12.0 6.8 8.7 80 1.6 ENE 26 33 14 18 1026.4 - 0.0
25/06:00pm 11.9 5.9 8.6 80 1.6 E 30 35 16 19 1026.0 1026.1 0.0
25/05:30pm 11.7 5.3 8.4 80 1.6 ENE 32 35 17 19 1025.8 - 0.0
25/05:00pm 11.8 6.2 8.6 81 1.6 ENE 28 32 15 17 1025.6 - 0.0
25/04:30pm 11.9 5.5 8.7 81 1.6 E 32 35 17 19 1025.6 - 0.0
25/04:00pm 12.0 5.8 9.4 84 1.3 ENE 32 37 17 20 1025.7 - 0.0
25/03:30pm 11.4 5.9 9.0 85 1.2 ENE 28 37 15 20 1025.7 - 0.0
25/03:00pm 11.9 5.1 9.1 83 1.4 E 35 41 19 22 1025.4 1025.5 0.0
25/02:30pm 12.0 5.1 8.7 80 1.6 E 35 43 19 23 1025.4 - 0.0
25/02:00pm 12.3 5.7 8.6 78 1.8 E 33 39 18 21 1025.4 - 0.0
25/01:30pm 12.1 5.4 8.0 76 2.0 E 33 39 18 21 1025.4 - 0.0
25/01:00pm 12.0 6.1 7.7 75 2.1 E 28 32 15 17 1025.7 - 0.0
25/12:30pm 11.9 6.4 7.6 75 2.1 E 26 35 14 19 1025.9 - 0.0
25/12:00pm 12.2 6.7 7.5 73 2.3 E 26 33 14 18 1026.1 1026.2 0.0
25/11:30am 12.2 7.7 7.1 71 2.5 ESE 20 28 11 15 1026.7 - 0.0
25/11:00am 12.2 7.7 6.9 70 2.6 E 20 26 11 14 1027.3 - 0.0
25/10:30am 12.5 7.3 7.2 70 2.6 E 24 30 13 16 1027.4 - 0.0
25/10:00am 11.9 5.8 6.8 71 2.4 E 28 35 15 19 1026.9 - 0.0
25/09:30am 11.9 6.8 6.0 67 2.8 E 22 28 12 15 1026.5 - 0.0
25/09:00am 11.9 6.9 6.4 69 2.6 E 22 32 12 17 1026.3 1026.4 0.0
25/08:30am 12.2 6.6 5.6 64 3.1 E 24 30 13 16 1026.3 - 0.0
25/08:00am 11.8 6.3 5.9 67 2.8 E 24 28 13 15 1026.0 - 0.0
25/07:30am 11.6 6.7 5.3 65 2.9 E 20 33 11 18 1026.0 - 0.0
25/07:00am 11.8 5.5 5.9 67 2.8 E 28 32 15 17 1025.6 - 0.0
25/06:30am 11.9 6.5 6.4 69 2.6 ESE 24 30 13 16 1025.4 - 0.0
25/06:00am 11.7 7.1 6.6 71 2.4 ESE 20 24 11 13 1025.1 1025.2 0.0
25/05:30am 11.9 6.8 6.0 67 2.8 E 22 28 12 15 1024.9 - 0.0
25/05:00am 11.9 7.6 6.8 71 2.4 E 19 26 10 14 1024.7 - 0.0
25/04:30am 11.8 7.5 6.9 72 2.4 E 19 24 10 13 1024.7 - 0.0
25/04:00am 11.8 7.5 7.1 73 2.3 E 19 22 10 12 1024.7 - 0.0
25/03:30am 11.9 7.7 7.4 74 2.2 E 19 22 10 12 1024.6 - 0.0
25/03:00am 11.9 8.1 7.6 75 2.1 E 17 22 9 12 1024.8 1024.9 0.0
25/02:30am 12.0 9.0 7.5 74 2.2 ESE 13 17 7 9 1024.7 - 0.0
25/02:00am 11.9 8.8 7.4 74 2.2 E 13 17 7 9 1024.8 - 0.0
25/01:30am 12.1 7.7 7.6 74 2.2 SSE 20 22 11 12 1024.9 - 0.0
25/01:00am 11.8 7.6 7.3 74 2.2 S 19 24 10 13 1024.8 - 0.0
25/12:30am 11.9 6.7 7.4 74 2.2 SSE 24 30 13 16 1024.9 - 0.0
25/12:00am 12.0 7.2 7.3 73 2.3 S 22 28 12 15 1024.8 1024.9 0.0
 
Date/Time
EST
Temp
°C
App
Temp
°C
Dew
Point
°C
Rel
Hum
%
Delta-T
°C
Wind Press
QNH
hPa
Press
MSL
hPa
Rain since
9am
mm
Dir  Spd
km/h
Gust
km/h
Spd
kts
Gust
kts
24/11:30pm 12.0 7.7 7.1 72 2.4 S 19 22 10 12 1024.4 - 0.0
24/11:00pm 11.8 9.7 6.7 71 2.4 SW 7 11 4 6 1024.4 - 0.0
24/10:30pm 11.7 9.1 6.0 68 2.7 SSW 9 13 5 7 1024.3 - 0.0
24/10:00pm 11.7 8.0 6.2 69 2.6 SSE 15 19 8 10 1024.3 - 0.0
24/09:30pm 12.0 8.2 5.9 66 2.9 SE 15 17 8 9 1024.1 - 0.0
24/09:00pm 12.0 7.4 5.4 64 3.1 E 19 28 10 15 1023.8 1023.8 0.0
24/08:30pm 12.2 7.4 5.8 65 3.0 SE 20 26 11 14 1023.8 - 0.0
24/08:00pm 11.8 6.8 6.5 70 2.5 SE 22 28 12 15 1023.8 - 0.0
24/07:30pm 11.9 5.9 7.2 73 2.3 SSE 28 32 15 17 1023.4 - 0.0
24/07:00pm 11.9 6.3 7.2 73 2.3 S 26 30 14 16 1023.4 - 0.0
24/06:30pm 12.0 7.5 7.1 72 2.4 S 20 28 11 15 1023.2 - 0.0
24/06:00pm 12.3 8.3 6.6 68 2.7 S 17 22 9 12 1023.0 1023.0 0.0
24/05:30pm 12.2 8.9 6.5 68 2.7 S 13 19 7 10 1022.8 - 0.0
24/05:00pm 12.1 7.6 5.9 66 2.9 SSE 19 24 10 13 1022.6 - 0.0
24/04:30pm 12.2 8.1 6.3 67 2.8 SE 17 22 9 12 1022.3 - 0.0
24/04:00pm 12.2 8.4 5.8 65 3.0 SE 15 20 8 11 1022.2 - 0.0
24/03:30pm 12.3 7.1 5.7 64 3.1 SE 22 28 12 15 1021.9 - 0.0
24/03:00pm 12.5 7.4 6.1 65 3.0 SE 22 28 12 15 1021.7 1021.7 0.0
24/02:30pm 12.1 7.6 6.8 70 2.5 SSE 20 26 11 14 1021.5 - 0.0
24/02:00pm 12.3 7.3 6.4 67 2.8 SE 22 26 12 14 1021.3 - 0.0
24/01:30pm 12.7 8.2 6.3 65 3.1 SSE 19 24 10 13 1021.3 - 0.0
24/01:00pm 12.8 8.4 6.6 66 3.0 SSE 19 24 10 13 1021.3 - 0.0
24/12:30pm 12.8 8.2 6.6 66 3.0 SE 20 24 11 13 1021.5 - 0.0
24/12:00pm 12.8 8.8 6.8 67 2.9 ESE 17 20 9 11 1021.5 1021.5 0.0
24/11:30am 12.4 8.5 6.9 69 2.7 ESE 17 22 9 12 1021.9 - 0.0
24/11:00am 12.5 7.6 7.0 69 2.7 E 22 28 12 15 1021.8 - 0.0
24/10:30am 13.0 8.7 7.7 70 2.6 E 20 24 11 13 1021.6 - 0.0
24/10:00am 13.1 8.8 7.8 70 2.6 E 20 26 11 14 1021.4 - 0.0
24/09:30am 13.1 9.0 7.8 70 2.6 ESE 19 26 10 14 1021.2 - 0.0
24/09:00am 13.3 9.3 8.4 72 2.4 ESE 19 24 10 13 1020.9 1020.9 0.0
24/08:30am 12.8 8.3 8.5 75 2.2 ESE 22 30 12 16 1020.6 - 0.0
24/08:00am 12.5 7.2 8.4 76 2.0 ESE 26 32 14 17 1020.2 - 0.0
24/07:30am 12.5 5.8 8.0 74 2.2 SSE 33 39 18 21 1019.7 - 0.0
24/07:00am 12.6 6.5 8.1 74 2.2 SSE 30 35 16 19 1019.2 - 0.0
24/06:30am 12.6 6.7 9.1 79 1.8 SSE 30 35 16 19 1018.8 - 0.0
24/06:00am 12.5 7.0 9.1 80 1.7 SSE 28 33 15 18 1018.6 1018.6 0.0
24/05:30am 12.5 7.5 9.7 83 1.4 S 26 33 14 18 1018.3 - 0.0
24/05:00am 12.1 9.9 9.3 83 1.4 W 11 15 6 8 1018.2 - 0.0
24/04:30am 12.1 9.8 8.9 81 1.6 W 11 13 6 7 1018.1 - 0.0
24/04:00am 12.0 10.6 9.0 82 1.5 WSW 6 11 3 6 1017.8 - 0.0
24/03:30am 11.8 10.3 9.0 83 1.4 W 7 11 4 6 1017.7 - 0.0
24/03:00am 11.4 10.0 8.8 84 1.3 W 6 7 3 4 1017.8 1017.8 0.0
24/02:30am 11.4 10.0 8.8 84 1.3 W 6 7 3 4 1017.8 - 0.0
24/02:00am 11.6 11.3 8.8 83 1.4 CALM 0 6 0 3 1017.7 - 0.0
24/01:30am 11.7 10.7 8.9 83 1.4 N 4 7 2 4 1017.6 - 0.0
24/01:00am 11.7 10.1 8.9 83 1.4 N 7 9 4 5 1017.6 - 0.0
24/12:30am 11.6 9.3 9.0 84 1.3 N 11 13 6 7 1017.6 - 0.0
24/12:00am 11.6 9.6 8.8 83 1.4 NNE 9 11 5 6 1017.6 1017.6 0.0
 
Date/Time
EST
Temp
°C
App
Temp
°C
Dew
Point
°C
Rel
Hum
%
Delta-T
°C
Wind Press
QNH
hPa
Press
MSL
hPa
Rain since
9am
mm
Dir  Spd
km/h
Gust
km/h
Spd
kts
Gust
kts
23/11:30pm 11.6 9.6 8.8 83 1.4 NE 9 11 5 6 1017.6 - 0.0
23/11:00pm 11.8 10.8 8.8 82 1.5 ESE 4 7 2 4 1017.5 - 0.0
23/10:30pm 11.5 11.1 8.4 81 1.5 CALM 0 0 0 0 1017.5 - 0.0
23/10:00pm 11.6 11.3 8.5 81 1.5 CALM 0 0 0 0 1017.5 - 0.0
23/09:30pm 11.6 11.2 8.3 80 1.6 CALM 0 6 0 3 1017.3 - 0.0
23/09:00pm 11.8 10.1 8.3 79 1.7 S 7 11 4 6 1017.1 1017.1 0.0
23/08:30pm 11.9 10.4 8.4 79 1.7 SW 6 11 3 6 1016.9 - 0.0
23/08:00pm 11.7 10.0 8.2 79 1.7 SSW 7 13 4 7 1016.7 - 0.0
23/07:30pm 11.6 9.5 8.1 79 1.7 SSW 9 19 5 10 1016.4 - 0.0
23/07:00pm 11.5 8.5 7.8 78 1.8 SSW 13 20 7 11 1016.3 - 0.0
23/06:30pm 11.7 7.7 8.2 79 1.7 S 19 30 10 16 1016.1 - 0.0
23/06:00pm 11.8 8.2 8.3 79 1.7 SSW 17 28 9 15 1015.7 1015.7 0.0
23/05:30pm 11.9 8.0 8.7 81 1.6 S 19 32 10 17 1015.3 - 0.0
23/05:00pm 11.9 8.8 8.7 81 1.6 WSW 15 33 8 18 1014.9 - 0.0
23/04:30pm 12.0 8.9 8.8 81 1.6 SSE 15 33 8 18 1014.5 - 0.0
23/04:15pm 12.0 8.5 8.8 81 1.6 SSW 17 46 9 25 1014.3 - 0.0
23/04:00pm 12.1 4.2 9.3 83 1.4 SW 41 48 22 26 1014.5 - 0.0
23/03:30pm 11.9 2.8 9.8 87 1.1 SW 48 56 26 30 1014.1 - 0.0
23/03:00pm 12.0 2.9 9.7 86 1.2 SW 48 57 26 31 1014.1 1014.1 0.0
23/02:30pm 11.5 3.2 9.9 90 0.8 WSW 44 56 24 30 1014.2 - 0.0
23/02:22pm 11.7 4.7 10.1 90 0.8 WSW 37 56 20 30 1014.3 - 0.0
23/02:00pm 11.3 2.2 9.7 90 0.8 WSW 48 56 26 30 1014.7 - 0.0
23/01:30pm 11.3 3.9 9.7 90 0.8 WSW 39 50 21 27 1014.8 - 0.0
23/01:00pm 11.7 4.1 9.1 84 1.3 SW 39 44 21 24 1015.1 - 0.0
23/12:30pm 11.9 5.5 8.6 80 1.6 SW 32 41 17 22 1015.7 - 0.0
23/12:00pm 12.1 6.0 8.4 78 1.8 SW 30 41 16 22 1016.0 1016.1 0.0
23/11:30am 12.0 6.9 7.5 74 2.2 SW 24 33 13 18 1016.7 - 0.0

Other formats

Comma delimited format used in spreadsheet applications
http://www.bom.gov.au/fwo/IDV60801/IDV60801.94893.axf

JavaScript Object Notation format (JSON) in row-major order
http://www.bom.gov.au/fwo/IDV60801/IDV60801.94893.json

Data quality

Most of these data are generated automatically and are frequently updated. Quality checks on data are not normally performed. It is possible for incorrect values to appear. Refer to information at About Latest Weather Observations and please check the disclaimer before using these data.